Time;durP1;ratioP1;P1;durP2;ratioP2;P2;SDS_P1;SDS_P2;PMS_P1;PMS_P2;Temp;Humidity;BMP_temperature;BMP_pressure;BME280_temperature;BME280_humidity;BME280_pressure;Samples;Min_cycle;Max_cycle;Signal;HPM_P1;HPM_P2
2021/12/14 00:03:09;;;;;;;21.17;11.23;;;;;7.80;102198.00;;;;10488046;28;20671;-78
2021/12/14 00:08:14;;;;;;;22.87;12.53;;;;;7.80;102209.00;;;;10451920;28;20212;-79
2021/12/14 00:18:27;;;;;;;17.20;9.70;;;;;7.80;102204.00;;;;10495957;28;20551;-78
2021/12/14 00:28:52;;;;;;;12.77;7.57;;;;;7.70;102219.00;;;;10504160;28;20663;-78
2021/12/14 00:34:01;;;;;;;9.00;6.47;;;;;7.70;102236.00;;;;10495585;28;20224;-78
2021/12/14 00:39:09;;;;;;;10.20;5.50;;;;;7.70;102240.00;;;;10478482;28;20547;-78
2021/12/14 00:44:11;;;;;;;8.43;5.47;;;;;7.70;102242.00;;;;10479298;28;20194;-78
2021/12/14 00:49:14;;;;;;;8.47;5.47;;;;;7.70;102237.00;;;;10431019;28;20210;-78
2021/12/14 00:54:16;;;;;;;8.03;5.43;;;;;7.60;102241.00;;;;10504027;28;20242;-78
2021/12/14 00:59:21;;;;;;;8.83;5.80;;;;;7.60;102240.00;;;;10500398;28;20186;-78
2021/12/14 01:04:27;;;;;;;9.47;5.67;;;;;7.60;102265.00;;;;10498182;28;20268;-78
2021/12/14 01:09:35;;;;;;;9.23;6.73;;;;;7.60;102260.00;;;;10491262;28;20649;-78
2021/12/14 01:14:48;;;;;;;9.67;6.70;;;;;7.60;102249.00;;;;10477699;28;20190;-78
2021/12/14 01:19:56;;;;;;;9.73;6.10;;;;;7.60;102227.00;;;;10470739;28;20239;-78
2021/12/14 01:25:14;;;;;;;8.97;6.40;;;;;7.60;102230.00;;;;10494214;28;20254;-78
2021/12/14 01:30:27;;;;;;;12.00;6.80;;;;;7.60;102220.00;;;;10510769;28;20189;-78
2021/12/14 01:35:32;;;;;;;8.90;6.37;;;;;7.60;102222.00;;;;10510084;28;20209;-77
2021/12/14 01:40:53;;;;;;;9.30;6.23;;;;;7.60;102236.00;;;;10476449;28;20657;-78
2021/12/14 01:46:32;;;;;;;11.63;7.23;;;;;7.60;102253.00;;;;10502710;28;20282;-78
2021/12/14 01:52:17;;;;;;;10.23;6.80;;;;;7.60;102231.00;;;;10478956;28;20288;-77
2021/12/14 01:57:24;;;;;;;11.43;7.03;;;;;7.50;102244.00;;;;10505954;28;20185;-78
2021/12/14 02:02:42;;;;;;;13.53;7.97;;;;;7.50;102239.00;;;;10471535;28;20623;-78
2021/12/14 02:07:45;;;;;;;11.57;6.97;;;;;7.50;102203.00;;;;10473332;28;20205;-78
2021/12/14 02:12:49;;;;;;;9.97;7.10;;;;;7.50;102194.00;;;;10486635;28;20189;-78
2021/12/14 02:17:53;;;;;;;10.53;7.30;;;;;7.50;102191.00;;;;10498476;28;20204;-78
2021/12/14 02:22:57;;;;;;;11.00;7.07;;;;;7.50;102183.00;;;;10494098;28;20238;-78
2021/12/14 02:28:02;;;;;;;12.20;7.60;;;;;7.40;102182.00;;;;10502115;28;20603;-78
2021/12/14 02:33:25;;;;;;;12.73;7.60;;;;;7.40;102186.00;;;;10481748;28;20709;-78
2021/12/14 02:38:28;;;;;;;9.70;7.30;;;;;7.40;102187.00;;;;10498685;28;20264;-78
2021/12/14 02:43:37;;;;;;;12.20;7.63;;;;;7.40;102186.00;;;;10465061;28;20193;-78
2021/12/14 02:48:43;;;;;;;13.70;8.17;;;;;7.40;102194.00;;;;10499364;28;20283;-78
2021/12/14 02:53:51;;;;;;;14.67;8.53;;;;;7.40;102205.00;;;;10477482;28;20238;-78
2021/12/14 02:59:02;;;;;;;14.20;8.57;;;;;7.50;102193.00;;;;10473152;28;20194;-78
2021/12/14 03:04:07;;;;;;;15.87;9.07;;;;;7.50;102191.00;;;;10448070;28;20258;-78
2021/12/14 03:09:20;;;;;;;14.47;9.97;;;;;7.50;102190.00;;;;10442056;28;20292;-78
2021/12/14 03:14:23;;;;;;;17.50;11.20;;;;;7.50;102185.00;;;;10495973;28;20653;-78
2021/12/14 03:19:27;;;;;;;20.50;11.23;;;;;7.50;102174.00;;;;10475778;28;20665;-78
2021/12/14 03:24:29;;;;;;;17.30;11.23;;;;;7.50;102183.00;;;;10462569;28;20197;-78
2021/12/14 03:29:33;;;;;;;22.50;11.97;;;;;7.50;102172.00;;;;10452493;28;20220;-79
2021/12/14 03:34:38;;;;;;;20.47;11.77;;;;;7.50;102152.00;;;;10425970;28;20321;-78
2021/12/14 03:39:58;;;;;;;20.23;12.47;;;;;7.50;102131.00;;;;10411197;28;20197;-79
2021/12/14 03:45:12;;;;;;;20.60;11.77;;;;;7.50;102130.00;;;;10501511;28;20189;-78
2021/12/14 03:50:20;;;;;;;22.00;11.73;;;;;7.40;102130.00;;;;10476486;28;20184;-78
2021/12/14 03:55:30;;;;;;;17.93;11.27;;;;;7.40;102130.00;;;;10456763;28;20193;-78
2021/12/14 04:00:44;;;;;;;17.33;10.83;;;;;7.50;102140.00;;;;10471048;28;20671;-78
2021/12/14 04:05:47;;;;;;;18.57;11.67;;;;;7.40;102121.00;;;;10461127;28;20212;-78
2021/12/14 04:10:53;;;;;;;17.50;10.77;;;;;7.50;102152.00;;;;10417052;28;20186;-78
2021/12/14 04:15:57;;;;;;;19.37;11.23;;;;;7.50;102167.00;;;;10454579;28;20214;-78
2021/12/14 04:21:01;;;;;;;19.03;10.97;;;;;7.50;102177.00;;;;10455655;28;20554;-78
2021/12/14 04:26:06;;;;;;;19.20;12.00;;;;;7.50;102182.00;;;;10421531;28;20225;-78
2021/12/14 04:31:10;;;;;;;24.07;12.13;;;;;7.50;102186.00;;;;10404700;28;20194;-78
2021/12/14 04:36:16;;;;;;;17.60;11.43;;;;;7.50;102180.00;;;;10458364;28;20209;-78
2021/12/14 04:52:04;;;;;;;21.67;12.77;;;;;7.50;102188.00;;;;10436759;28;20198;-78
2021/12/14 04:57:26;;;;;;;20.70;12.40;;;;;7.50;102190.00;;;;10428417;28;20280;-78
2021/12/14 05:02:32;;;;;;;20.83;11.83;;;;;7.50;102165.00;;;;10477201;28;20201;-78
2021/12/14 05:13:26;;;;;;;21.27;12.67;;;;;7.50;102178.00;;;;10510840;28;20185;-79
2021/12/14 05:18:29;;;;;;;22.50;13.30;;;;;7.50;102178.00;;;;10468856;28;20185;-78
2021/12/14 05:23:34;;;;;;;22.07;13.90;;;;;7.50;102165.00;;;;10491356;28;20648;-79
2021/12/14 05:28:42;;;;;;;26.23;13.63;;;;;7.50;102172.00;;;;10494739;28;20216;-78
2021/12/14 05:33:50;;;;;;;22.63;13.30;;;;;7.50;102194.00;;;;10468935;28;20237;-78
2021/12/14 05:44:36;;;;;;;22.57;13.47;;;;;7.50;102196.00;;;;10491449;28;20189;-78
2021/12/14 05:49:42;;;;;;;23.60;13.37;;;;;7.50;102202.00;;;;10475337;28;20237;-78
2021/12/14 05:54:47;;;;;;;24.53;13.77;;;;;7.50;102210.00;;;;10506491;28;20715;-78
2021/12/14 05:59:50;;;;;;;26.33;15.00;;;;;7.50;102204.00;;;;10551107;28;20180;-78
2021/12/14 06:04:55;;;;;;;30.50;16.40;;;;;7.50;102196.00;;;;10471852;28;20630;-79
2021/12/14 06:09:58;;;;;;;26.40;14.67;;;;;7.50;102200.00;;;;10477947;28;20213;-79
2021/12/14 06:15:13;;;;;;;36.60;17.33;;;;;7.50;102197.00;;;;10416419;28;20187;-78
2021/12/14 06:20:22;;;;;;;32.03;17.63;;;;;7.50;102207.00;;;;10468894;28;20196;-78
2021/12/14 06:25:28;;;;;;;33.63;18.60;;;;;7.50;102215.00;;;;10508853;28;20200;-78
2021/12/14 06:30:34;;;;;;;35.13;17.57;;;;;7.50;102208.00;;;;10524628;28;20284;-78
2021/12/14 06:35:44;;;;;;;38.03;20.00;;;;;7.50;102203.00;;;;10479620;28;20213;-78
2021/12/14 06:40:58;;;;;;;37.60;17.77;;;;;7.50;102212.00;;;;10441740;28;20193;-79
2021/12/14 06:46:09;;;;;;;37.17;18.50;;;;;7.50;102212.00;;;;10449202;28;20446;-78
2021/12/14 06:51:14;;;;;;;36.17;18.20;;;;;7.50;102211.00;;;;10465449;28;20189;-78
2021/12/14 06:56:39;;;;;;;39.83;18.30;;;;;7.50;102212.00;;;;10451509;28;20189;-79
2021/12/14 07:02:02;;;;;;;40.27;19.93;;;;;7.50;102219.00;;;;10479228;28;20251;-78
2021/12/14 07:07:09;;;;;;;40.63;20.40;;;;;7.50;102214.00;;;;10515720;28;20228;-78
2021/12/14 07:12:20;;;;;;;43.87;21.40;;;;;7.50;102216.00;;;;10458787;28;20197;-78
2021/12/14 07:17:27;;;;;;;44.67;22.47;;;;;7.50;102222.00;;;;10517927;28;20567;-78
2021/12/14 07:22:42;;;;;;;44.57;21.33;;;;;7.50;102227.00;;;;10506175;28;20219;-77
2021/12/14 07:28:14;;;;;;;42.50;21.27;;;;;7.50;102231.00;;;;10480911;28;20274;-78
2021/12/14 07:33:20;;;;;;;47.13;21.20;;;;;7.60;102253.00;;;;10470439;28;20584;-78
2021/12/14 07:38:30;;;;;;;46.20;22.17;;;;;7.60;102251.00;;;;10507131;28;20196;-77
2021/12/14 07:43:43;;;;;;;46.43;22.23;;;;;7.60;102265.00;;;;10482076;28;20199;-77
2021/12/14 07:48:58;;;;;;;47.10;22.17;;;;;7.60;102267.00;;;;10504382;28;20212;-77
2021/12/14 07:54:10;;;;;;;46.03;22.77;;;;;7.60;102275.00;;;;10496562;28;20201;-77
2021/12/14 07:59:24;;;;;;;46.70;22.60;;;;;7.70;102296.00;;;;10508222;28;20271;-77
2021/12/14 08:04:33;;;;;;;50.97;22.73;;;;;7.70;102300.00;;;;10524862;28;20235;-77
2021/12/14 08:09:50;;;;;;;44.70;21.70;;;;;7.80;102309.00;;;;10494338;28;20206;-78
2021/12/14 08:15:30;;;;;;;50.50;20.43;;;;;7.80;102312.00;;;;10527963;28;20768;-77
2021/12/14 08:21:01;;;;;;;45.60;21.07;;;;;7.80;102315.00;;;;10446501;28;20208;-77
2021/12/14 08:26:14;;;;;;;48.70;21.40;;;;;7.90;102315.00;;;;10509197;28;20209;-77
2021/12/14 08:31:18;;;;;;;50.57;22.47;;;;;7.90;102316.00;;;;10489745;28;20212;-77
2021/12/14 08:36:20;;;;;;;49.03;21.90;;;;;7.90;102307.00;;;;10486251;28;20270;-78
2021/12/14 08:41:25;;;;;;;47.50;23.07;;;;;8.00;102310.00;;;;10508581;28;20218;-77
2021/12/14 08:46:30;;;;;;;42.80;20.43;;;;;8.10;102307.00;;;;10501338;28;20205;-77
2021/12/14 08:51:40;;;;;;;47.13;22.03;;;;;8.20;102312.00;;;;10519069;28;20192;-77
2021/12/14 08:57:01;;;;;;;42.03;20.63;;;;;8.30;102308.00;;;;10526834;28;20708;-77
2021/12/14 09:02:06;;;;;;;43.87;21.40;;;;;8.40;102321.00;;;;10482409;28;20258;-77
2021/12/14 09:07:21;;;;;;;36.77;19.10;;;;;8.50;102322.00;;;;10479155;28;20225;-77
2021/12/14 09:12:30;;;;;;;46.57;22.83;;;;;8.60;102330.00;;;;10516124;28;20286;-77
2021/12/14 09:17:32;;;;;;;37.70;20.13;;;;;8.70;102334.00;;;;10507264;28;20252;-78
2021/12/14 09:22:41;;;;;;;44.30;21.73;;;;;8.80;102345.00;;;;10572415;28;20709;-77
2021/12/14 09:27:43;;;;;;;40.60;21.50;;;;;8.80;102339.00;;;;10489812;28;20220;-77
2021/12/14 09:32:45;;;;;;;41.80;22.03;;;;;9.00;102356.00;;;;10525715;28;20221;-77
2021/12/14 09:37:50;;;;;;;39.57;20.73;;;;;9.20;102355.00;;;;10468889;28;20250;-77
2021/12/14 09:42:54;;;;;;;39.10;20.57;;;;;9.30;102357.00;;;;10487639;28;20204;-77
2021/12/14 09:47:56;;;;;;;40.90;20.53;;;;;9.50;102353.00;;;;10491893;28;20205;-77
2021/12/14 09:53:02;;;;;;;35.67;19.53;;;;;9.60;102360.00;;;;10483793;28;20200;-77
2021/12/14 09:58:28;;;;;;;36.43;20.17;;;;;9.60;102369.00;;;;10488562;28;20194;-78
2021/12/14 10:03:31;;;;;;;36.77;19.67;;;;;9.50;102353.00;;;;10467041;28;20205;-78
2021/12/14 10:08:38;;;;;;;38.30;20.40;;;;;9.40;102360.00;;;;10477231;28;20213;-77
2021/12/14 10:13:44;;;;;;;33.70;18.37;;;;;9.30;102332.00;;;;10494219;28;20200;-78
2021/12/14 10:18:51;;;;;;;32.57;19.47;;;;;9.30;102339.00;;;;10503530;28;20188;-78
2021/12/14 10:23:54;;;;;;;36.80;18.97;;;;;9.20;102337.00;;;;10480313;28;20227;-77
2021/12/14 10:29:03;;;;;;;36.53;19.00;;;;;9.20;102347.00;;;;10502635;28;20200;-77
2021/12/14 10:34:11;;;;;;;32.93;18.50;;;;;9.30;102343.00;;;;10492682;28;20568;-77
2021/12/14 10:39:24;;;;;;;35.77;19.50;;;;;9.40;102350.00;;;;10512455;28;20197;-77
2021/12/14 10:44:31;;;;;;;42.80;20.90;;;;;9.50;102347.00;;;;10495770;28;20199;-77
2021/12/14 10:49:33;;;;;;;40.57;20.30;;;;;9.50;102341.00;;;;10489550;28;20271;-77
2021/12/14 10:54:36;;;;;;;41.40;20.97;;;;;9.50;102340.00;;;;10470787;28;20660;-77
2021/12/14 10:59:41;;;;;;;39.13;19.97;;;;;9.60;102342.00;;;;10489649;28;20238;-78
2021/12/14 11:04:55;;;;;;;36.77;20.00;;;;;9.70;102340.00;;;;10482568;28;20254;-78
2021/12/14 11:10:18;;;;;;;39.33;22.27;;;;;9.80;102341.00;;;;10486011;28;20213;-78
2021/12/14 11:15:24;;;;;;;36.37;20.60;;;;;9.90;102336.00;;;;10482316;28;20558;-78
2021/12/14 11:20:34;;;;;;;39.73;22.20;;;;;10.00;102341.00;;;;10495500;28;20647;-78
2021/12/14 11:25:48;;;;;;;40.33;21.10;;;;;10.10;102326.00;;;;10494751;28;20193;-78
2021/12/14 11:30:57;;;;;;;36.63;20.07;;;;;10.10;102326.00;;;;10491378;28;20205;-78
2021/12/14 11:35:59;;;;;;;43.07;21.80;;;;;10.30;102320.00;;;;10492221;28;20208;-78
2021/12/14 11:41:20;;;;;;;38.00;21.53;;;;;10.40;102331.00;;;;10488858;28;20189;-78
2021/12/14 11:46:22;;;;;;;38.97;21.10;;;;;10.40;102321.00;;;;10469509;28;20259;-78
2021/12/14 11:51:27;;;;;;;39.33;21.30;;;;;10.40;102310.00;;;;10490776;28;20204;-78
2021/12/14 11:56:31;;;;;;;36.80;20.13;;;;;10.50;102309.00;;;;10505078;28;20283;-78
2021/12/14 12:01:36;;;;;;;34.70;19.67;;;;;10.50;102310.00;;;;10468080;28;1198367;-78
2021/12/14 12:12:03;;;;;;;35.10;20.57;;;;;10.50;102304.00;;;;10511634;28;20649;-78
2021/12/14 12:17:26;;;;;;;33.87;20.20;;;;;10.50;102310.00;;;;10454726;28;20198;-78
2021/12/14 12:22:45;;;;;;;31.33;19.07;;;;;10.40;102320.00;;;;10559919;28;20192;-77
2021/12/14 12:27:58;;;;;;;36.13;20.93;;;;;10.40;102310.00;;;;10504401;28;20255;-78
2021/12/14 12:33:11;;;;;;;34.70;19.67;;;;;10.40;102305.00;;;;10500050;28;20224;-78
2021/12/14 12:38:40;;;;;;;32.40;20.10;;;;;10.50;102309.00;;;;10460793;28;20189;-78
2021/12/14 12:44:04;;;;;;;33.63;20.07;;;;;10.40;102310.00;;;;10474577;28;20232;-78
2021/12/14 12:49:13;;;;;;;36.33;20.67;;;;;10.40;102308.00;;;;10488090;28;20204;-78
2021/12/14 12:54:18;;;;;;;37.93;20.23;;;;;10.40;102307.00;;;;10506418;28;20189;-78
2021/12/14 12:59:55;;;;;;;37.20;20.03;;;;;10.40;102301.00;;;;10486273;28;20193;-78
2021/12/14 13:05:02;;;;;;;36.83;22.00;;;;;10.40;102292.00;;;;10427999;28;20220;-78
2021/12/14 13:10:23;;;;;;;36.77;20.17;;;;;10.50;102285.00;;;;10451893;28;20245;-78
2021/12/14 13:15:41;;;;;;;35.50;20.83;;;;;10.60;102290.00;;;;10454799;28;20197;-77
2021/12/14 13:20:47;;;;;;;33.77;20.47;;;;;10.50;102294.00;;;;10485459;28;20193;-78
2021/12/14 13:25:49;;;;;;;34.67;20.07;;;;;10.40;102295.00;;;;10485301;28;20198;-78
2021/12/14 13:30:54;;;;;;;36.27;21.30;;;;;10.30;102289.00;;;;10501602;28;20209;-77
2021/12/14 13:35:57;;;;;;;33.83;19.33;;;;;10.30;102284.00;;;;10467400;28;20222;-78
2021/12/14 13:41:05;;;;;;;37.10;21.73;;;;;10.20;102281.00;;;;10459543;28;20272;-78
2021/12/14 13:46:08;;;;;;;35.23;19.53;;;;;10.20;102275.00;;;;10434685;28;20243;-77
2021/12/14 13:51:14;;;;;;;31.73;19.23;;;;;10.20;102275.00;;;;10453648;28;20232;-78
2021/12/14 13:56:20;;;;;;;34.20;19.80;;;;;10.10;102278.00;;;;10425525;28;20649;-77
2021/12/14 14:01:41;;;;;;;32.83;19.43;;;;;10.10;102278.00;;;;10456266;28;20201;-78
2021/12/14 14:06:44;;;;;;;28.90;18.97;;;;;10.00;102277.00;;;;10503984;28;20193;-78
2021/12/14 14:11:55;;;;;;;32.57;19.47;;;;;10.00;102272.00;;;;10492703;28;20243;-77
2021/12/14 14:17:05;;;;;;;34.57;20.77;;;;;9.90;102287.00;;;;10479181;28;20181;-77
2021/12/14 14:22:11;;;;;;;35.83;20.43;;;;;9.90;102294.00;;;;10488335;28;20193;-77
2021/12/14 14:27:36;;;;;;;42.90;20.67;;;;;9.80;102295.00;;;;10478025;28;20251;-77
2021/12/14 14:32:59;;;;;;;42.80;22.23;;;;;9.80;102295.00;;;;10496544;28;20300;-78
2021/12/14 14:38:25;;;;;;;38.70;21.40;;;;;9.80;102297.00;;;;10490724;28;20242;-77
2021/12/14 14:44:02;;;;;;;38.20;22.50;;;;;9.80;102292.00;;;;10506909;28;20281;-78
2021/12/14 14:49:32;;;;;;;37.23;20.67;;;;;9.70;102300.00;;;;10513767;28;20200;-78
2021/12/14 14:54:34;;;;;;;38.30;21.83;;;;;9.70;102306.00;;;;10494576;28;20220;-78
2021/12/14 14:59:39;;;;;;;38.23;22.63;;;;;9.60;102308.00;;;;10484348;28;20192;-78
2021/12/14 15:05:19;;;;;;;38.90;23.03;;;;;9.60;102302.00;;;;10489046;28;20312;-77
2021/12/14 15:10:29;;;;;;;39.30;23.10;;;;;9.60;102299.00;;;;10491808;28;20209;-77
2021/12/14 15:15:31;;;;;;;39.83;22.87;;;;;9.50;102303.00;;;;10540306;28;20193;-78
2021/12/14 15:20:35;;;;;;;38.00;22.63;;;;;9.50;102297.00;;;;10500940;28;20268;-78
2021/12/14 15:25:37;;;;;;;41.60;23.73;;;;;9.40;102301.00;;;;10502630;28;20255;-77
2021/12/14 15:30:44;;;;;;;41.07;23.93;;;;;9.40;102304.00;;;;10495737;28;20250;-78
2021/12/14 15:35:53;;;;;;;41.07;22.90;;;;;9.40;102299.00;;;;10523776;28;20223;-78
2021/12/14 15:41:14;;;;;;;43.50;23.87;;;;;9.30;102309.00;;;;10493864;28;20813;-77
2021/12/14 15:46:19;;;;;;;43.10;24.53;;;;;9.30;102314.00;;;;10519340;28;20182;-78
2021/12/14 15:51:34;;;;;;;44.27;24.53;;;;;9.30;102315.00;;;;10496734;28;20267;-78
2021/12/14 15:56:44;;;;;;;42.77;25.03;;;;;9.30;102323.00;;;;10483513;28;20198;-78
2021/12/14 16:01:55;;;;;;;42.90;24.67;;;;;9.30;102317.00;;;;10479283;28;20201;-78
2021/12/14 16:06:59;;;;;;;40.70;25.53;;;;;9.20;102323.00;;;;10481840;28;20586;-78
2021/12/14 16:17:27;;;;;;;46.20;24.43;;;;;9.20;102331.00;;;;10519009;28;20660;-77
2021/12/14 16:22:32;;;;;;;47.80;25.40;;;;;9.20;102330.00;;;;10477245;28;20201;-77
2021/12/14 16:27:37;;;;;;;48.30;26.57;;;;;9.20;102344.00;;;;10481366;28;20270;-77
2021/12/14 16:32:39;;;;;;;39.80;25.13;;;;;9.20;102346.00;;;;10519315;28;20752;-78
2021/12/14 16:37:42;;;;;;;46.73;25.37;;;;;9.20;102339.00;;;;10507531;28;20189;-77
2021/12/14 16:42:47;;;;;;;41.30;24.33;;;;;9.20;102332.00;;;;10529883;28;20230;-78
2021/12/14 16:47:51;;;;;;;43.87;25.57;;;;;9.20;102340.00;;;;10494402;28;20204;-77
2021/12/14 16:52:56;;;;;;;44.47;26.40;;;;;9.20;102350.00;;;;10490831;28;20247;-77
2021/12/14 16:58:07;;;;;;;47.00;25.23;;;;;9.20;102347.00;;;;10480968;28;20231;-77
2021/12/14 17:03:09;;;;;;;49.27;26.57;;;;;9.20;102343.00;;;;10488992;28;20197;-77
2021/12/14 17:08:14;;;;;;;43.10;25.10;;;;;9.20;102337.00;;;;10480440;28;20235;-77
2021/12/14 17:13:20;;;;;;;41.90;24.47;;;;;9.20;102340.00;;;;10506150;28;20189;-77
2021/12/14 17:18:35;;;;;;;40.53;23.87;;;;;9.20;102342.00;;;;10487999;28;20192;-77
2021/12/14 17:23:41;;;;;;;43.27;24.03;;;;;9.20;102342.00;;;;10491225;28;20187;-78
2021/12/14 17:28:47;;;;;;;39.93;25.00;;;;;9.20;102354.00;;;;10470830;28;20258;-78
2021/12/14 17:33:52;;;;;;;41.90;24.37;;;;;9.20;102354.00;;;;10518631;28;20205;-78
2021/12/14 17:38:58;;;;;;;40.17;23.90;;;;;9.20;102360.00;;;;10468497;28;20201;-79
2021/12/14 17:44:14;;;;;;;46.97;27.03;;;;;9.20;102359.00;;;;10494307;28;20211;-78
2021/12/14 17:49:17;;;;;;;44.80;26.67;;;;;9.20;102370.00;;;;10505394;28;20205;-78
2021/12/14 17:54:25;;;;;;;47.67;30.67;;;;;9.20;102381.00;;;;10523971;28;20269;-78
2021/12/14 17:59:39;;;;;;;41.40;24.73;;;;;9.20;102385.00;;;;10507744;28;20235;-77
2021/12/14 18:04:42;;;;;;;41.23;23.77;;;;;9.20;102400.00;;;;10508682;28;20201;-78
2021/12/14 18:09:50;;;;;;;40.57;24.97;;;;;9.20;102395.00;;;;10507466;28;20242;-77
2021/12/14 18:14:52;;;;;;;42.53;26.03;;;;;9.20;102394.00;;;;10475704;28;20246;-78
2021/12/14 18:19:55;;;;;;;42.33;24.40;;;;;9.20;102401.00;;;;10507667;28;20189;-77
2021/12/14 18:25:06;;;;;;;42.03;23.43;;;;;9.20;102405.00;;;;10509083;28;20189;-78
2021/12/14 18:30:19;;;;;;;36.77;23.57;;;;;9.20;102409.00;;;;10501182;28;20214;-78
2021/12/14 18:35:31;;;;;;;44.17;23.77;;;;;9.20;102409.00;;;;10493183;28;20217;-78
2021/12/14 18:40:44;;;;;;;42.00;24.67;;;;;9.20;102411.00;;;;10481731;28;20273;-78
2021/12/14 18:45:56;;;;;;;39.00;23.93;;;;;9.20;102411.00;;;;10515088;28;20322;-78
2021/12/14 18:50:58;;;;;;;38.00;23.70;;;;;9.20;102416.00;;;;10458203;28;20248;-78
2021/12/14 18:56:13;;;;;;;40.50;23.10;;;;;9.20;102409.00;;;;10513708;28;20209;-79
2021/12/14 19:01:26;;;;;;;41.37;25.27;;;;;9.20;102423.00;;;;10506474;28;20211;-78
2021/12/14 19:06:31;;;;;;;39.30;24.30;;;;;9.20;102425.00;;;;10498838;28;20192;-76
2021/12/14 19:11:36;;;;;;;42.47;25.00;;;;;9.20;102432.00;;;;10536764;28;20242;-77
2021/12/14 19:16:47;;;;;;;38.33;24.13;;;;;9.20;102434.00;;;;10522088;28;20193;-77
2021/12/14 19:21:50;;;;;;;38.77;24.20;;;;;9.20;102434.00;;;;10497216;28;20193;-78
2021/12/14 19:26:58;;;;;;;36.93;22.97;;;;;9.20;102439.00;;;;10475211;28;20193;-77
2021/12/14 19:32:09;;;;;;;43.10;25.33;;;;;9.20;102447.00;;;;10502356;28;20205;-76
2021/12/14 19:37:15;;;;;;;38.90;23.90;;;;;9.20;102440.00;;;;10485057;28;20193;-77
2021/12/14 19:42:22;;;;;;;35.90;22.90;;;;;9.20;102452.00;;;;10513394;28;20525;-78
2021/12/14 19:47:39;;;;;;;37.93;23.27;;;;;9.20;102439.00;;;;10492985;28;20232;-78
2021/12/14 19:52:55;;;;;;;41.60;23.93;;;;;9.20;102446.00;;;;10519851;28;20227;-78
2021/12/14 19:58:03;;;;;;;41.53;23.27;;;;;9.20;102456.00;;;;10503868;28;20181;-78
2021/12/14 20:03:09;;;;;;;39.87;23.93;;;;;9.20;102457.00;;;;10496919;28;20232;-78
2021/12/14 20:08:22;;;;;;;40.53;25.30;;;;;9.20;102453.00;;;;10501538;28;20204;-77
2021/12/14 20:13:25;;;;;;;42.13;24.87;;;;;9.20;102449.00;;;;10515560;28;20271;-77
2021/12/14 20:18:32;;;;;;;38.33;23.30;;;;;9.20;102451.00;;;;10457635;28;20192;-76
2021/12/14 20:23:37;;;;;;;45.70;24.47;;;;;9.20;102454.00;;;;10462900;28;20225;-77
2021/12/14 20:28:53;;;;;;;41.40;25.07;;;;;9.20;102455.00;;;;10461529;28;20299;-78
2021/12/14 20:34:10;;;;;;;43.67;24.87;;;;;9.20;102461.00;;;;10460038;28;20295;-78
2021/12/14 20:39:21;;;;;;;42.40;26.33;;;;;9.20;102451.00;;;;10481020;28;20713;-77
2021/12/14 20:44:48;;;;;;;46.57;26.63;;;;;9.10;102461.00;;;;10466412;28;20239;-78
2021/12/14 20:49:52;;;;;;;43.67;26.17;;;;;9.10;102455.00;;;;10518729;28;20205;-78
2021/12/14 20:54:59;;;;;;;48.23;27.37;;;;;9.10;102458.00;;;;10501236;28;20268;-78
2021/12/14 21:00:09;;;;;;;42.57;25.83;;;;;9.10;102449.00;;;;10464439;28;20551;-77
2021/12/14 21:05:16;;;;;;;44.23;26.67;;;;;9.10;102452.00;;;;10497077;28;20597;-78
2021/12/14 21:10:22;;;;;;;45.73;27.37;;;;;9.00;102446.00;;;;10492823;28;20594;-77
2021/12/14 21:15:26;;;;;;;44.00;25.87;;;;;9.00;102448.00;;;;10536524;28;20865;-78
2021/12/14 21:20:32;;;;;;;44.63;26.47;;;;;9.00;102446.00;;;;10488692;28;20192;-77
2021/12/14 21:25:45;;;;;;;45.17;25.60;;;;;9.00;102460.00;;;;10511135;28;20659;-77
2021/12/14 21:31:09;;;;;;;47.90;28.13;;;;;9.00;102453.00;;;;10481370;28;20283;-78
2021/12/14 21:36:20;;;;;;;45.50;25.77;;;;;8.90;102455.00;;;;10497630;28;20587;-78
2021/12/14 21:41:29;;;;;;;47.77;26.77;;;;;8.90;102460.00;;;;10483631;28;20199;-77
2021/12/14 21:46:42;;;;;;;48.13;26.03;;;;;8.80;102458.00;;;;10464004;28;20247;-78
2021/12/14 21:51:48;;;;;;;45.70;25.50;;;;;8.80;102461.00;;;;10490331;28;20197;-78
2021/12/14 21:56:50;;;;;;;46.10;26.37;;;;;8.80;102468.00;;;;10496799;28;20686;-78
2021/12/14 22:01:52;;;;;;;45.87;25.83;;;;;8.80;102464.00;;;;10491898;28;20181;-77
2021/12/14 22:06:54;;;;;;;43.53;24.10;;;;;8.80;102471.00;;;;10495688;28;20201;-78
2021/12/14 22:12:00;;;;;;;42.10;23.57;;;;;8.80;102454.00;;;;10486500;28;20205;-77
2021/12/14 22:17:06;;;;;;;47.17;25.87;;;;;8.80;102462.00;;;;10491878;28;20273;-78
2021/12/14 22:22:11;;;;;;;45.53;24.93;;;;;8.80;102457.00;;;;10466575;28;20197;-78
2021/12/14 22:27:14;;;;;;;43.33;24.60;;;;;8.80;102466.00;;;;10478991;28;20272;-78
2021/12/14 22:32:17;;;;;;;45.40;24.90;;;;;8.80;102462.00;;;;10503034;28;20587;-78
2021/12/14 22:37:19;;;;;;;45.13;25.53;;;;;8.80;102470.00;;;;10494341;28;20201;-78
2021/12/14 22:47:28;;;;;;;56.83;27.77;;;;;8.80;102469.00;;;;10503217;28;20212;-78
2021/12/14 22:52:31;;;;;;;48.27;26.80;;;;;8.80;102468.00;;;;10517136;28;20206;-78
2021/12/14 22:57:34;;;;;;;46.63;25.17;;;;;8.80;102474.00;;;;10485348;28;20212;-77
2021/12/14 23:02:36;;;;;;;54.50;29.13;;;;;8.80;102472.00;;;;10465686;27;20193;-78
2021/12/14 23:07:39;;;;;;;48.57;27.07;;;;;8.80;102482.00;;;;10473408;28;20272;-78
2021/12/14 23:12:56;;;;;;;47.13;27.23;;;;;8.80;102485.00;;;;10492217;28;20275;-77
2021/12/14 23:18:22;;;;;;;52.80;25.77;;;;;8.80;102480.00;;;;10459157;28;20177;-78
2021/12/14 23:23:24;;;;;;;53.40;27.77;;;;;8.80;102489.00;;;;10510209;28;20190;-78
2021/12/14 23:28:28;;;;;;;49.97;26.67;;;;;8.80;102498.00;;;;10467370;28;20553;-78
2021/12/14 23:33:31;;;;;;;53.47;27.87;;;;;8.80;102488.00;;;;10485032;28;20563;-78
2021/12/14 23:38:35;;;;;;;48.20;25.40;;;;;8.80;102482.00;;;;10479197;28;20219;-78
2021/12/14 23:43:38;;;;;;;49.23;25.67;;;;;8.80;102485.00;;;;10472387;28;20263;-78
2021/12/14 23:48:40;;;;;;;52.87;27.73;;;;;8.70;102486.00;;;;10504228;28;20567;-79
2021/12/14 23:53:43;;;;;;;50.37;24.93;;;;;8.70;102486.00;;;;10470175;28;20687;-79
2021/12/14 23:58:45;;;;;;;44.37;22.90;;;;;8.70;102482.00;;;;10480788;28;20189;-79
